Time,TemperatureF,DewpointF,PressureIn,WindDirection,WindDirectionDegrees,WindSpeedMPH,WindSpeedGustMPH,Humidity,HourlyPrecipIn,Conditions,Clouds,dailyrainin,SolarRadiationWatts/m^2,SoftwareType,DateUTC
2013-03-23 00:13:00,29.0,19.0,-100.00,NNW,328,7.0,13.0,66,0.00,,,0.00,1.000000,,2013-03-23 04:13:00,
2013-03-23 00:23:00,29.0,19.0,-100.00,NNW,328,7.0,13.0,66,0.00,,,0.00,1.000000,,2013-03-23 04:23:00,
2013-03-23 00:33:00,29.0,19.0,-100.00,NNW,328,7.0,13.0,66,0.00,,,0.00,1.000000,,2013-03-23 04:33:00,
2013-03-23 00:43:00,29.0,19.0,-100.00,NNW,328,7.0,13.0,66,0.00,,,0.00,1.000000,,2013-03-23 04:43:00,
2013-03-23 01:12:00,28.0,19.0,-100.00,NW,316,4.0,17.0,68,0.00,,,0.00,1.000000,,2013-03-23 05:12:00,
2013-03-23 01:22:00,28.0,19.0,-100.00,NW,316,4.0,17.0,68,0.00,,,0.00,1.000000,,2013-03-23 05:22:00,
2013-03-23 01:32:00,28.0,19.0,-100.00,NW,316,4.0,17.0,68,0.00,,,0.00,1.000000,,2013-03-23 05:32:00,
2013-03-23 01:42:00,28.0,19.0,-100.00,NW,316,4.0,17.0,68,0.00,,,0.00,1.000000,,2013-03-23 05:42:00,
2013-03-23 02:12:00,27.0,19.0,-100.00,NW,313,6.0,9.0,71,0.00,,,0.00,0.000000,,2013-03-23 06:12:00,
2013-03-23 02:22:00,27.0,19.0,-100.00,NW,313,6.0,9.0,71,0.00,,,0.00,0.000000,,2013-03-23 06:22:00,
2013-03-23 02:32:00,27.0,19.0,-100.00,NW,313,6.0,9.0,71,0.00,,,0.00,0.000000,,2013-03-23 06:32:00,
2013-03-23 02:42:00,27.0,19.0,-100.00,NW,313,6.0,9.0,71,0.00,,,0.00,0.000000,,2013-03-23 06:42:00,
2013-03-23 03:12:00,25.0,19.0,-100.00,NW,326,4.0,8.0,76,0.00,,,-99.99,1.000000,,2013-03-23 07:12:00,
2013-03-23 03:22:00,25.0,19.0,-100.00,NW,326,4.0,8.0,76,0.00,,,-99.99,1.000000,,2013-03-23 07:22:00,
2013-03-23 03:33:00,25.0,19.0,-100.00,NW,326,4.0,8.0,76,0.00,,,-99.99,1.000000,,2013-03-23 07:33:00,
2013-03-23 03:42:00,25.0,19.0,-100.00,NW,326,4.0,8.0,76,0.00,,,-99.99,1.000000,,2013-03-23 07:42:00,
2013-03-23 04:13:00,24.0,18.0,-100.00,NW,325,5.0,10.0,79,0.00,,,0.00,1.000000,,2013-03-23 08:13:00,
2013-03-23 04:22:00,24.0,18.0,-100.00,NW,325,5.0,10.0,79,0.00,,,0.00,1.000000,,2013-03-23 08:22:00,
2013-03-23 04:32:00,24.0,18.0,-100.00,NW,325,5.0,10.0,79,0.00,,,0.00,1.000000,,2013-03-23 08:32:00,
2013-03-23 04:42:00,24.0,18.0,-100.00,NW,325,5.0,10.0,79,0.00,,,0.00,1.000000,,2013-03-23 08:42:00,
2013-03-23 05:12:00,23.0,19.0,-100.00,NW,319,4.0,9.0,83,0.00,,,0.00,1.000000,,2013-03-23 09:12:00,
2013-03-23 05:22:00,23.0,19.0,-100.00,NW,319,4.0,9.0,83,0.00,,,0.00,1.000000,,2013-03-23 09:22:00,
2013-03-23 05:33:00,23.0,19.0,-100.00,NW,319,4.0,9.0,83,0.00,,,0.00,1.000000,,2013-03-23 09:33:00,
2013-03-23 05:43:00,23.0,19.0,-100.00,NW,319,4.0,9.0,83,0.00,,,0.00,1.000000,,2013-03-23 09:43:00,
2013-03-23 06:13:00,21.0,18.0,-100.00,WNW,300,4.0,6.0,88,0.00,,,0.00,1.000000,,2013-03-23 10:13:00,
2013-03-23 06:24:00,21.0,18.0,-100.00,WNW,300,4.0,6.0,88,0.00,,,0.00,1.000000,,2013-03-23 10:24:00,
2013-03-23 06:34:00,21.0,18.0,-100.00,WNW,300,4.0,6.0,88,0.00,,,0.00,1.000000,,2013-03-23 10:34:00,
2013-03-23 06:43:00,21.0,18.0,-100.00,WNW,300,4.0,6.0,88,0.00,,,0.00,1.000000,,2013-03-23 10:43:00,
2013-03-23 07:12:00,20.0,18.0,-100.00,NW,319,2.0,6.0,93,0.00,,,0.00,1.000000,,2013-03-23 11:12:00,
2013-03-23 07:22:00,20.0,18.0,-100.00,NW,319,2.0,6.0,93,0.00,,,0.00,1.000000,,2013-03-23 11:22:00,
2013-03-23 07:32:00,20.0,18.0,-100.00,NW,319,2.0,6.0,93,0.00,,,0.00,1.000000,,2013-03-23 11:32:00,
2013-03-23 07:42:00,20.0,18.0,-100.00,NW,319,2.0,6.0,93,0.00,,,0.00,1.000000,,2013-03-23 11:42:00,
2013-03-23 08:13:00,22.0,20.0,-100.00,NNW,338,0.0,3.0,92,0.00,,,0.00,2.000000,,2013-03-23 12:13:00,
2013-03-23 08:22:00,22.0,20.0,-100.00,NNW,338,0.0,3.0,92,0.00,,,0.00,2.000000,,2013-03-23 12:22:00,
2013-03-23 08:33:00,22.0,20.0,-100.00,NNW,338,0.0,3.0,92,0.00,,,0.00,2.000000,,2013-03-23 12:33:00,
2013-03-23 08:42:00,22.0,20.0,-100.00,NNW,338,0.0,3.0,92,0.00,,,0.00,2.000000,,2013-03-23 12:42:00,
2013-03-23 09:12:00,25.0,21.0,-100.00,NW,317,3.0,5.0,85,0.00,,,0.00,34.000000,,2013-03-23 13:12:00,
2013-03-23 09:23:00,25.0,21.0,-100.00,NW,317,3.0,5.0,85,0.00,,,0.00,34.000000,,2013-03-23 13:23:00,
2013-03-23 09:33:00,25.0,21.0,-100.00,NW,317,3.0,5.0,85,0.00,,,0.00,34.000000,,2013-03-23 13:33:00,
2013-03-23 09:43:00,25.0,21.0,-100.00,NW,317,3.0,5.0,85,0.00,,,0.00,34.000000,,2013-03-23 13:43:00,
2013-03-23 10:13:00,27.0,22.0,-100.00,NNW,341,4.0,7.0,80,0.00,,,0.00,109.000000,,2013-03-23 14:13:00,
2013-03-23 10:23:00,27.0,22.0,-100.00,NNW,341,4.0,7.0,80,0.00,,,0.00,109.000000,,2013-03-23 14:23:00,
2013-03-23 10:33:00,27.0,22.0,-100.00,NNW,341,4.0,7.0,80,0.00,,,0.00,109.000000,,2013-03-23 14:33:00,
2013-03-23 10:43:00,27.0,22.0,-100.00,NNW,341,4.0,7.0,80,0.00,,,0.00,109.000000,,2013-03-23 14:43:00,
2013-03-23 11:13:00,30.0,23.0,-100.00,NW,312,7.0,10.0,75,0.00,,,0.00,219.000000,,2013-03-23 15:13:00,
2013-03-23 11:22:00,30.0,23.0,-100.00,NW,312,7.0,10.0,75,0.00,,,0.00,219.000000,,2013-03-23 15:22:00,
2013-03-23 11:34:00,30.0,23.0,-100.00,NW,312,7.0,10.0,75,0.00,,,0.00,219.000000,,2013-03-23 15:34:00,
2013-03-23 11:44:00,30.0,23.0,-100.00,NW,312,7.0,10.0,75,0.00,,,0.00,219.000000,,2013-03-23 15:44:00,
2013-03-23 12:13:00,33.0,24.0,-100.00,NNW,328,6.0,9.0,68,0.00,,,0.00,330.000000,,2013-03-23 16:13:00,
2013-03-23 12:23:00,33.0,24.0,-100.00,NNW,328,6.0,9.0,68,0.00,,,0.00,330.000000,,2013-03-23 16:23:00,
2013-03-23 12:33:00,33.0,24.0,-100.00,NNW,328,6.0,9.0,68,0.00,,,0.00,330.000000,,2013-03-23 16:33:00,
2013-03-23 12:43:00,33.0,24.0,-100.00,NNW,328,6.0,9.0,68,0.00,,,0.00,330.000000,,2013-03-23 16:43:00,
2013-03-23 13:12:00,38.0,24.0,-100.00,West,280,5.0,12.0,56,0.00,,,0.00,689.000000,,2013-03-23 17:12:00,
2013-03-23 13:23:00,38.0,24.0,-100.00,West,280,5.0,12.0,56,0.00,,,0.00,689.000000,,2013-03-23 17:23:00,
2013-03-23 13:33:00,38.0,24.0,-100.00,West,280,5.0,12.0,56,0.00,,,0.00,689.000000,,2013-03-23 17:33:00,
2013-03-23 13:43:00,38.0,24.0,-100.00,West,280,5.0,12.0,56,0.00,,,0.00,689.000000,,2013-03-23 17:43:00,
2013-03-23 14:12:00,39.0,20.0,-100.00,WNW,289,7.0,11.0,47,0.00,,,0.00,665.000000,,2013-03-23 18:12:00,
2013-03-23 14:23:00,39.0,20.0,-100.00,WNW,289,7.0,11.0,47,0.00,,,0.00,665.000000,,2013-03-23 18:23:00,
2013-03-23 14:32:00,39.0,20.0,-100.00,WNW,289,7.0,11.0,47,0.00,,,0.00,665.000000,,2013-03-23 18:32:00,
2013-03-23 14:43:00,39.0,20.0,-100.00,WNW,289,7.0,11.0,47,0.00,,,0.00,665.000000,,2013-03-23 18:43:00,
2013-03-23 15:13:00,40.0,20.0,-100.00,WNW,301,7.0,15.0,45,0.00,,,0.00,492.000000,,2013-03-23 19:13:00,
2013-03-23 15:23:00,40.0,20.0,-100.00,WNW,301,7.0,15.0,45,0.00,,,0.00,492.000000,,2013-03-23 19:23:00,
2013-03-23 15:33:00,40.0,20.0,-100.00,WNW,301,7.0,15.0,45,0.00,,,0.00,492.000000,,2013-03-23 19:33:00,
2013-03-23 15:42:00,40.0,20.0,-100.00,WNW,301,7.0,15.0,45,0.00,,,0.00,492.000000,,2013-03-23 19:42:00,
2013-03-23 16:13:00,41.0,20.0,-100.00,NNW,334,6.0,15.0,43,0.00,,,0.00,498.000000,,2013-03-23 20:13:00,
2013-03-23 16:23:00,41.0,20.0,-100.00,NNW,334,6.0,15.0,43,0.00,,,0.00,498.000000,,2013-03-23 20:23:00,
2013-03-23 16:32:00,41.0,20.0,-100.00,NNW,334,6.0,15.0,43,0.00,,,0.00,498.000000,,2013-03-23 20:32:00,
2013-03-23 16:43:00,41.0,20.0,-100.00,NNW,334,6.0,15.0,43,0.00,,,0.00,498.000000,,2013-03-23 20:43:00,
2013-03-23 17:12:00,39.0,19.0,-100.00,NW,321,7.0,14.0,44,0.00,,,0.00,344.000000,,2013-03-23 21:12:00,
2013-03-23 17:22:00,39.0,19.0,-100.00,NW,321,7.0,14.0,44,0.00,,,0.00,344.000000,,2013-03-23 21:22:00,
2013-03-23 17:33:00,39.0,19.0,-100.00,NW,321,7.0,14.0,44,0.00,,,0.00,344.000000,,2013-03-23 21:33:00,
2013-03-23 17:43:00,39.0,19.0,-100.00,NW,321,7.0,14.0,44,0.00,,,0.00,344.000000,,2013-03-23 21:43:00,
2013-03-23 18:13:00,39.0,20.0,-100.00,North,3,5.0,10.0,46,0.00,,,0.00,213.000000,,2013-03-23 22:13:00,
2013-03-23 18:23:00,39.0,20.0,-100.00,North,3,5.0,10.0,46,0.00,,,0.00,213.000000,,2013-03-23 22:23:00,
2013-03-23 18:33:00,39.0,20.0,-100.00,North,3,5.0,10.0,46,0.00,,,0.00,213.000000,,2013-03-23 22:33:00,
2013-03-23 18:42:00,39.0,20.0,-100.00,North,3,5.0,10.0,46,0.00,,,0.00,213.000000,,2013-03-23 22:42:00,
2013-03-23 19:13:00,37.0,19.0,-100.00,North,5,5.0,11.0,48,0.00,,,0.00,84.000000,,2013-03-23 23:13:00,
2013-03-23 19:23:00,37.0,19.0,-100.00,North,5,5.0,11.0,48,0.00,,,0.00,84.000000,,2013-03-23 23:23:00,
2013-03-23 19:33:00,37.0,19.0,-100.00,North,5,5.0,11.0,48,0.00,,,0.00,84.000000,,2013-03-23 23:33:00,
2013-03-23 19:43:00,37.0,19.0,-100.00,North,5,5.0,11.0,48,0.00,,,0.00,84.000000,,2013-03-23 23:43:00,
2013-03-23 20:13:00,34.0,25.0,-100.00,SE,130,4.0,9.0,68,0.00,,,0.00,23.000000,,2013-03-24 00:13:00,
2013-03-23 20:23:00,34.0,25.0,-100.00,SE,130,4.0,9.0,68,0.00,,,0.00,23.000000,,2013-03-24 00:23:00,
2013-03-23 20:33:00,34.0,25.0,-100.00,SE,130,4.0,9.0,68,0.00,,,0.00,23.000000,,2013-03-24 00:33:00,
2013-03-23 20:42:00,34.0,25.0,-100.00,SE,130,4.0,9.0,68,0.00,,,0.00,23.000000,,2013-03-24 00:42:00,
2013-03-23 21:13:00,31.0,25.0,-100.00,SE,146,2.0,7.0,78,0.00,,,0.00,1.000000,,2013-03-24 01:13:00,
2013-03-23 21:22:00,31.0,25.0,-100.00,SE,146,2.0,7.0,78,0.00,,,0.00,1.000000,,2013-03-24 01:22:00,
2013-03-23 21:33:00,31.0,25.0,-100.00,SE,146,2.0,7.0,78,0.00,,,0.00,1.000000,,2013-03-24 01:33:00,
2013-03-23 21:43:00,31.0,25.0,-100.00,SE,146,2.0,7.0,78,0.00,,,0.00,1.000000,,2013-03-24 01:43:00,
2013-03-23 22:12:00,31.0,26.0,-100.00,ESE,105,0.0,2.0,81,0.00,,,0.00,1.000000,,2013-03-24 02:12:00,
2013-03-23 22:22:00,31.0,26.0,-100.00,ESE,105,0.0,2.0,81,0.00,,,0.00,1.000000,,2013-03-24 02:22:00,
2013-03-23 22:32:00,31.0,26.0,-100.00,ESE,105,0.0,2.0,81,0.00,,,0.00,1.000000,,2013-03-24 02:32:00,
2013-03-23 22:42:00,31.0,26.0,-100.00,ESE,105,0.0,2.0,81,0.00,,,0.00,1.000000,,2013-03-24 02:42:00,
2013-03-23 23:13:00,30.0,26.0,-100.00,SW,236,1.0,3.0,84,0.00,,,0.00,0.000000,,2013-03-24 03:13:00,
2013-03-23 23:23:00,30.0,26.0,-100.00,SW,236,1.0,3.0,84,0.00,,,0.00,0.000000,,2013-03-24 03:23:00,
2013-03-23 23:33:00,30.0,26.0,-100.00,SW,236,1.0,3.0,84,0.00,,,0.00,0.000000,,2013-03-24 03:33:00,
2013-03-23 23:42:00,30.0,26.0,-100.00,SW,236,1.0,3.0,84,0.00,,,0.00,0.000000,,2013-03-24 03:42:00,